Time;durP1;ratioP1;P1;durP2;ratioP2;P2;SDS_P1;SDS_P2;PMS_P1;PMS_P2;Temp;Humidity;BMP_temperature;BMP_pressure;BME280_temperature;BME280_humidity;BME280_pressure;Samples;Min_cycle;Max_cycle;Signal;HPM_P1;HPM_P2
2022/04/09 00:02:21;;;;;;;;;10.75;10.75;;;;;;;;5076884;28;45429;-77
2022/04/09 00:04:47;;;;;;;;;8.75;8.75;;;;;;;;5075516;28;45496;-77
2022/04/09 00:07:12;;;;;;;;;10.25;8.50;;;;;;;;5073539;27;46803;-77
2022/04/09 00:09:38;;;;;;;;;9.00;7.50;;;;;;;;5076350;27;45341;-77
2022/04/09 00:12:03;;;;;;;;;9.50;8.50;;;;;;;;5075092;28;45618;-77
2022/04/09 00:14:28;;;;;;;;;12.50;8.50;;;;;;;;5077193;27;45346;-76
2022/04/09 00:16:53;;;;;;;;;8.50;7.50;;;;;;;;5076736;27;46092;-75
2022/04/09 00:19:19;;;;;;;;;7.25;7.25;;;;;;;;5076547;27;45431;-77
2022/04/09 00:21:46;;;;;;;;;9.25;7.00;;;;;;;;5076766;28;45347;-76
2022/04/09 00:24:11;;;;;;;;;9.00;7.75;;;;;;;;5076319;28;45590;-76
2022/04/09 00:26:36;;;;;;;;;4.25;4.00;;;;;;;;5070766;28;46075;-76
2022/04/09 00:29:01;;;;;;;;;7.00;6.00;;;;;;;;5076026;28;45513;-76
2022/04/09 00:31:26;;;;;;;;;7.00;7.00;;;;;;;;5075183;28;45403;-77
2022/04/09 00:33:52;;;;;;;;;7.75;6.50;;;;;;;;5061497;28;45348;-76
2022/04/09 00:36:17;;;;;;;;;2.00;2.00;;;;;;;;5074842;28;46280;-77
2022/04/09 00:38:42;;;;;;;;;8.00;4.75;;;;;;;;5076154;28;45472;-76
2022/04/09 00:41:10;;;;;;;;;6.00;5.00;;;;;;;;5074802;28;45425;-76
2022/04/09 00:43:40;;;;;;;;;5.00;3.50;;;;;;;;5076312;27;45374;-76
2022/04/09 00:46:05;;;;;;;;;7.00;6.25;;;;;;;;5059531;27;47383;-76
2022/04/09 00:48:30;;;;;;;;;5.25;5.25;;;;;;;;5062855;28;45379;-76
2022/04/09 00:50:55;;;;;;;;;5.75;5.50;;;;;;;;5071771;28;45531;-76
2022/04/09 00:53:21;;;;;;;;;9.50;5.75;;;;;;;;5075811;28;45534;-76
2022/04/09 00:58:33;;;;;;;;;7.00;5.00;;;;;;;;5060827;28;45559;-77
2022/04/09 01:00:59;;;;;;;;;5.50;5.50;;;;;;;;5076694;28;45226;-77
2022/04/09 01:03:24;;;;;;;;;6.25;6.25;;;;;;;;5064257;28;45263;-75
2022/04/09 01:05:50;;;;;;;;;5.00;5.00;;;;;;;;5070322;28;46324;-76
2022/04/09 01:08:15;;;;;;;;;4.50;4.50;;;;;;;;5073144;27;45453;-76
2022/04/09 01:10:44;;;;;;;;;7.75;7.75;;;;;;;;5061428;28;45169;-76
2022/04/09 01:13:09;;;;;;;;;9.00;5.25;;;;;;;;5074314;28;45474;-76
2022/04/09 01:15:34;;;;;;;;;7.75;5.50;;;;;;;;5075620;28;45420;-76
2022/04/09 01:18:00;;;;;;;;;4.00;4.00;;;;;;;;5065929;28;45431;-76
2022/04/09 01:20:26;;;;;;;;;3.00;3.00;;;;;;;;5067759;28;45354;-76
2022/04/09 01:22:51;;;;;;;;;5.00;5.00;;;;;;;;5077851;27;45268;-76
2022/04/09 01:25:16;;;;;;;;;5.25;4.00;;;;;;;;5069777;28;46264;-76
2022/04/09 01:27:42;;;;;;;;;6.75;6.00;;;;;;;;5073991;28;45413;-76
2022/04/09 01:30:07;;;;;;;;;3.00;3.00;;;;;;;;5075760;27;45603;-76
2022/04/09 01:32:32;;;;;;;;;8.50;7.25;;;;;;;;5075229;27;45616;-77
2022/04/09 01:35:01;;;;;;;;;5.75;4.00;;;;;;;;5075013;28;46211;-77
2022/04/09 01:37:26;;;;;;;;;5.75;4.25;;;;;;;;5075806;28;45918;-76
2022/04/09 01:39:52;;;;;;;;;5.00;4.00;;;;;;;;5060759;27;45468;-77
2022/04/09 01:42:18;;;;;;;;;3.00;3.00;;;;;;;;5063107;28;45251;-77
2022/04/09 01:44:44;;;;;;;;;4.25;4.25;;;;;;;;5063248;28;45320;-74
2022/04/09 01:47:09;;;;;;;;;2.50;1.75;;;;;;;;5074878;28;45365;-77
2022/04/09 01:49:34;;;;;;;;;3.75;3.75;;;;;;;;5075051;28;45414;-77
2022/04/09 01:51:59;;;;;;;;;4.00;2.25;;;;;;;;5059641;28;45306;-77
2022/04/09 01:54:24;;;;;;;;;6.00;4.00;;;;;;;;5063306;28;47303;-76
2022/04/09 01:56:50;;;;;;;;;3.75;2.00;;;;;;;;5069626;28;45367;-75
2022/04/09 01:59:15;;;;;;;;;1.00;1.00;;;;;;;;5075380;28;45475;-77
2022/04/09 02:01:40;;;;;;;;;3.75;3.50;;;;;;;;5075580;27;45382;-75
2022/04/09 02:04:06;;;;;;;;;3.00;3.00;;;;;;;;5076035;27;45988;-76
2022/04/09 02:06:32;;;;;;;;;5.00;5.00;;;;;;;;5077508;27;45714;-76
2022/04/09 02:08:58;;;;;;;;;1.75;1.75;;;;;;;;5077775;28;45491;-76
2022/04/09 02:11:23;;;;;;;;;5.75;4.50;;;;;;;;5075489;28;45242;-75
2022/04/09 02:13:48;;;;;;;;;5.00;4.00;;;;;;;;5075463;28;46944;-76
2022/04/09 02:16:14;;;;;;;;;3.00;3.00;;;;;;;;5075555;27;45320;-76
2022/04/09 02:18:39;;;;;;;;;3.25;3.25;;;;;;;;5073577;28;45472;-76
2022/04/09 02:21:06;;;;;;;;;5.00;5.00;;;;;;;;5077914;28;45442;-76
2022/04/09 02:23:31;;;;;;;;;4.75;4.75;;;;;;;;5079163;28;45314;-76
2022/04/09 02:25:56;;;;;;;;;3.00;3.00;;;;;;;;5078722;28;45435;-77
2022/04/09 02:28:21;;;;;;;;;4.00;4.00;;;;;;;;5066106;27;45250;-77
2022/04/09 02:30:47;;;;;;;;;5.75;4.00;;;;;;;;5078845;28;45256;-75
2022/04/09 02:33:12;;;;;;;;;4.00;4.00;;;;;;;;5077876;28;46312;-76
2022/04/09 02:35:37;;;;;;;;;7.50;6.50;;;;;;;;5078181;28;45391;-76
2022/04/09 02:38:02;;;;;;;;;8.75;6.50;;;;;;;;5078343;28;45552;-77
2022/04/09 02:40:28;;;;;;;;;4.00;4.00;;;;;;;;5078241;28;45199;-76
2022/04/09 02:42:53;;;;;;;;;4.00;4.00;;;;;;;;5078573;27;46314;-76
2022/04/09 02:45:20;;;;;;;;;4.50;4.50;;;;;;;;5073463;28;45567;-76
2022/04/09 02:47:45;;;;;;;;;4.00;4.00;;;;;;;;5072117;28;45466;-77
2022/04/09 02:50:12;;;;;;;;;5.00;5.00;;;;;;;;5076532;28;45536;-76
2022/04/09 02:52:38;;;;;;;;;4.75;4.75;;;;;;;;5062738;28;46098;-76
2022/04/09 02:55:05;;;;;;;;;4.50;4.50;;;;;;;;5077830;27;45416;-76
2022/04/09 02:57:30;;;;;;;;;3.25;3.00;;;;;;;;5077749;27;45411;-76
2022/04/09 02:59:56;;;;;;;;;8.50;8.50;;;;;;;;5074260;28;45547;-76
2022/04/09 03:02:21;;;;;;;;;4.75;4.25;;;;;;;;5077202;28;46018;-76
2022/04/09 03:04:46;;;;;;;;;5.75;5.75;;;;;;;;5077703;28;45456;-76
2022/04/09 03:07:12;;;;;;;;;4.25;4.00;;;;;;;;5078472;28;45377;-76
2022/04/09 03:09:37;;;;;;;;;8.75;7.00;;;;;;;;5065770;28;45492;-76
2022/04/09 03:12:04;;;;;;;;;4.00;3.00;;;;;;;;5067589;28;46862;-76
2022/04/09 03:14:29;;;;;;;;;4.75;4.00;;;;;;;;5070092;28;45319;-76
2022/04/09 03:16:54;;;;;;;;;9.25;9.00;;;;;;;;5077692;28;45436;-76
2022/04/09 03:19:20;;;;;;;;;5.50;5.50;;;;;;;;5077456;27;45337;-74
2022/04/09 03:21:45;;;;;;;;;4.75;4.75;;;;;;;;5077520;28;46281;-76
2022/04/09 03:24:10;;;;;;;;;5.25;5.25;;;;;;;;5075622;28;45814;-76
2022/04/09 03:26:36;;;;;;;;;8.50;8.50;;;;;;;;5075563;28;45667;-76
2022/04/09 03:29:01;;;;;;;;;9.00;7.50;;;;;;;;5075949;28;45425;-76
2022/04/09 03:31:26;;;;;;;;;10.75;8.00;;;;;;;;5075577;28;47277;-75
2022/04/09 03:33:52;;;;;;;;;5.50;5.50;;;;;;;;5076674;28;45372;-77
2022/04/09 03:36:18;;;;;;;;;5.00;4.25;;;;;;;;5077090;28;45313;-77
2022/04/09 03:38:43;;;;;;;;;6.25;6.25;;;;;;;;5077173;27;45710;-74
2022/04/09 03:41:08;;;;;;;;;5.00;5.00;;;;;;;;5077191;28;46118;-77
2022/04/09 03:43:34;;;;;;;;;6.25;4.00;;;;;;;;5077271;28;45531;-76
2022/04/09 03:45:59;;;;;;;;;5.75;5.25;;;;;;;;5077386;28;45437;-76
2022/04/09 03:48:24;;;;;;;;;5.25;5.00;;;;;;;;5069348;28;45585;-76
2022/04/09 03:50:49;;;;;;;;;8.00;6.25;;;;;;;;5072034;28;46268;-76
2022/04/09 03:53:19;;;;;;;;;5.00;4.50;;;;;;;;5077949;28;45308;-76
2022/04/09 03:55:45;;;;;;;;;7.50;6.50;;;;;;;;5077634;27;45395;-76
2022/04/09 03:58:10;;;;;;;;;6.50;6.50;;;;;;;;5076965;27;45371;-76
2022/04/09 04:00:35;;;;;;;;;9.25;9.25;;;;;;;;5076929;28;47073;-76
2022/04/09 04:03:01;;;;;;;;;9.25;9.25;;;;;;;;5076485;28;45447;-76
2022/04/09 04:05:26;;;;;;;;;8.00;8.00;;;;;;;;5076512;28;45466;-76
2022/04/09 04:07:52;;;;;;;;;10.50;9.50;;;;;;;;5076371;28;45450;-76
2022/04/09 04:10:18;;;;;;;;;12.00;12.00;;;;;;;;5071575;28;46206;-77
2022/04/09 04:12:43;;;;;;;;;11.00;8.00;;;;;;;;5062330;28;45450;-77
2022/04/09 04:15:09;;;;;;;;;9.00;9.00;;;;;;;;5073827;28;45502;-77
2022/04/09 04:17:41;;;;;;;;;9.00;9.00;;;;;;;;5077118;27;45275;-77
2022/04/09 04:20:07;;;;;;;;;10.50;9.00;;;;;;;;5076339;28;45474;-77
2022/04/09 04:22:32;;;;;;;;;9.75;9.75;;;;;;;;5076540;27;45343;-75
2022/04/09 04:24:57;;;;;;;;;9.50;8.50;;;;;;;;5077092;28;45349;-75
2022/04/09 04:27:22;;;;;;;;;10.75;10.75;;;;;;;;5064943;28;45303;-77
2022/04/09 04:29:48;;;;;;;;;9.75;9.50;;;;;;;;5070293;28;46135;-76
2022/04/09 04:32:13;;;;;;;;;13.75;11.00;;;;;;;;5069301;28;45530;-77
2022/04/09 04:34:38;;;;;;;;;13.00;8.75;;;;;;;;5075935;28;45331;-78
2022/04/09 04:37:03;;;;;;;;;12.00;12.00;;;;;;;;5074456;28;45315;-74
2022/04/09 04:39:28;;;;;;;;;9.50;9.00;;;;;;;;5076108;28;47371;-75
2022/04/09 04:41:54;;;;;;;;;13.25;12.25;;;;;;;;5075542;28;45297;-77
2022/04/09 04:44:19;;;;;;;;;13.50;12.50;;;;;;;;5074150;28;45266;-78
2022/04/09 04:46:44;;;;;;;;;11.75;10.50;;;;;;;;5076049;28;45416;-76
2022/04/09 04:49:09;;;;;;;;;13.25;11.25;;;;;;;;5075779;28;47235;-76
2022/04/09 04:51:35;;;;;;;;;12.25;12.25;;;;;;;;5073347;27;45402;-76
2022/04/09 04:54:02;;;;;;;;;15.75;14.25;;;;;;;;5064094;28;45406;-76
2022/04/09 04:56:28;;;;;;;;;23.00;18.50;;;;;;;;5064355;28;45507;-76
2022/04/09 04:58:53;;;;;;;;;13.25;13.25;;;;;;;;5074380;28;47126;-75
2022/04/09 05:01:18;;;;;;;;;13.00;13.00;;;;;;;;5076610;27;45881;-76
2022/04/09 05:03:43;;;;;;;;;14.00;12.00;;;;;;;;5076559;28;45495;-76
2022/04/09 05:06:08;;;;;;;;;18.00;16.50;;;;;;;;5064309;28;45434;-77
2022/04/09 05:08:34;;;;;;;;;19.50;18.00;;;;;;;;5068136;28;47150;-76
2022/04/09 05:10:59;;;;;;;;;15.50;15.25;;;;;;;;5073617;28;45327;-76
2022/04/09 05:13:24;;;;;;;;;15.00;14.75;;;;;;;;5073679;28;45493;-76
2022/04/09 05:15:50;;;;;;;;;19.75;19.00;;;;;;;;5070420;28;45498;-76
2022/04/09 05:18:15;;;;;;;;;17.00;14.75;;;;;;;;5075232;28;46977;-76
2022/04/09 05:20:40;;;;;;;;;19.75;14.75;;;;;;;;5074982;28;45387;-76
2022/04/09 05:23:06;;;;;;;;;14.25;13.50;;;;;;;;5075775;28;45394;-77
2022/04/09 05:25:32;;;;;;;;;15.50;14.25;;;;;;;;5075273;27;45385;-76
2022/04/09 05:28:01;;;;;;;;;14.00;11.25;;;;;;;;5075467;27;45416;-77
2022/04/09 05:30:27;;;;;;;;;12.75;12.75;;;;;;;;5075377;28;45430;-77
2022/04/09 05:32:53;;;;;;;;;9.75;9.00;;;;;;;;5075387;27;45374;-77
2022/04/09 05:35:18;;;;;;;;;8.75;8.00;;;;;;;;5072784;27;45705;-77
2022/04/09 05:37:45;;;;;;;;;8.75;7.50;;;;;;;;5060701;28;45384;-77
2022/04/09 05:40:10;;;;;;;;;11.25;11.25;;;;;;;;5070994;27;45551;-78
2022/04/09 05:42:35;;;;;;;;;10.00;10.00;;;;;;;;5075119;28;45387;-77
2022/04/09 05:45:01;;;;;;;;;9.50;9.00;;;;;;;;5066516;28;45310;-76
2022/04/09 05:47:27;;;;;;;;;16.00;15.25;;;;;;;;5066618;28;46290;-77
2022/04/09 05:49:53;;;;;;;;;16.50;16.00;;;;;;;;5075001;28;45388;-77
2022/04/09 05:52:18;;;;;;;;;16.50;15.25;;;;;;;;5073608;28;45338;-77
2022/04/09 05:54:43;;;;;;;;;7.50;7.50;;;;;;;;5067643;27;45455;-74
2022/04/09 05:57:09;;;;;;;;;14.25;13.00;;;;;;;;5071643;28;46111;-76
2022/04/09 05:59:35;;;;;;;;;10.50;9.25;;;;;;;;5074261;27;45509;-77
2022/04/09 06:02:00;;;;;;;;;17.00;13.75;;;;;;;;5075254;28;45285;-74
2022/04/09 06:04:25;;;;;;;;;12.50;11.25;;;;;;;;5074876;27;45559;-77
2022/04/09 06:06:50;;;;;;;;;10.25;9.25;;;;;;;;5058532;28;47042;-77
2022/04/09 06:09:16;;;;;;;;;11.25;11.00;;;;;;;;5062485;28;45157;-77
2022/04/09 06:11:42;;;;;;;;;5.25;4.00;;;;;;;;5069932;28;45426;-77
2022/04/09 06:14:07;;;;;;;;;6.50;5.00;;;;;;;;5070538;27;45625;-77
2022/04/09 06:16:35;;;;;;;;;5.75;4.00;;;;;;;;5072683;27;45975;-77
2022/04/09 06:19:00;;;;;;;;;10.75;10.75;;;;;;;;5075027;27;45451;-77
2022/04/09 06:21:29;;;;;;;;;11.75;11.50;;;;;;;;5059808;28;45414;-76
2022/04/09 06:23:54;;;;;;;;;12.75;11.25;;;;;;;;5069827;28;45520;-76
2022/04/09 06:26:19;;;;;;;;;4.50;4.50;;;;;;;;5072200;28;48270;-77
2022/04/09 06:28:44;;;;;;;;;7.75;7.75;;;;;;;;5073711;28;45449;-76
2022/04/09 06:31:09;;;;;;;;;10.50;10.00;;;;;;;;5074278;27;45452;-73
2022/04/09 06:33:35;;;;;;;;;9.00;9.00;;;;;;;;5074839;28;45516;-77
2022/04/09 06:36:00;;;;;;;;;9.00;7.25;;;;;;;;5073822;28;45449;-77
2022/04/09 06:38:27;;;;;;;;;7.75;6.50;;;;;;;;5069213;28;45295;-77
2022/04/09 06:40:52;;;;;;;;;12.00;9.00;;;;;;;;5074322;28;45512;-78
2022/04/09 06:43:17;;;;;;;;;13.00;13.00;;;;;;;;5078815;27;45464;-77
2022/04/09 06:45:43;;;;;;;;;18.75;16.50;;;;;;;;5079294;28;45935;-77
2022/04/09 06:48:08;;;;;;;;;22.00;19.00;;;;;;;;5079161;28;45289;-78
2022/04/09 06:50:33;;;;;;;;;20.00;18.75;;;;;;;;5074479;28;45872;-78
2022/04/09 06:52:58;;;;;;;;;25.75;22.00;;;;;;;;5073644;27;45676;-79
2022/04/09 06:55:24;;;;;;;;;21.25;18.00;;;;;;;;5073893;27;45307;-78
2022/04/09 06:57:49;;;;;;;;;21.75;19.25;;;;;;;;5059111;27;45334;-77
2022/04/09 07:00:15;;;;;;;;;28.75;23.50;;;;;;;;5072225;28;45298;-77
2022/04/09 07:02:40;;;;;;;;;25.00;20.00;;;;;;;;5068049;27;45308;-77
2022/04/09 07:05:06;;;;;;;;;26.00;23.50;;;;;;;;5067152;28;47258;-77
2022/04/09 07:07:31;;;;;;;;;28.25;25.50;;;;;;;;5074228;28;45600;-78
2022/04/09 07:10:07;;;;;;;;;20.00;16.25;;;;;;;;5076041;27;45212;-78
2022/04/09 07:12:32;;;;;;;;;17.75;17.75;;;;;;;;5076424;28;45441;-78
2022/04/09 07:14:57;;;;;;;;;20.50;18.50;;;;;;;;5076766;27;47165;-77
2022/04/09 07:17:24;;;;;;;;;21.00;16.75;;;;;;;;5074811;28;45540;-78
2022/04/09 07:19:50;;;;;;;;;14.75;14.00;;;;;;;;5066030;28;45444;-77
2022/04/09 07:22:15;;;;;;;;;31.50;27.75;;;;;;;;5076488;27;45356;-77
2022/04/09 07:24:40;;;;;;;;;13.75;12.25;;;;;;;;5075061;28;46138;-77
2022/04/09 07:27:06;;;;;;;;;16.50;13.50;;;;;;;;5076828;28;45466;-75
2022/04/09 07:29:31;;;;;;;;;21.25;18.75;;;;;;;;5072714;27;45577;-77
2022/04/09 07:31:56;;;;;;;;;13.50;12.75;;;;;;;;5064584;28;45413;-78
2022/04/09 07:34:21;;;;;;;;;12.75;11.00;;;;;;;;5077097;27;46129;-78
2022/04/09 07:36:47;;;;;;;;;6.50;6.50;;;;;;;;5074630;28;45412;-78
2022/04/09 07:39:12;;;;;;;;;11.00;11.00;;;;;;;;5067020;28;45466;-75
2022/04/09 07:41:37;;;;;;;;;10.25;10.00;;;;;;;;5065032;28;45520;-77
2022/04/09 07:44:03;;;;;;;;;9.25;9.25;;;;;;;;5064768;28;46148;-77
2022/04/09 07:46:28;;;;;;;;;12.50;9.00;;;;;;;;5076198;28;45299;-76
2022/04/09 07:48:53;;;;;;;;;9.50;9.00;;;;;;;;5077273;28;45403;-77
2022/04/09 07:51:18;;;;;;;;;11.75;11.75;;;;;;;;5065763;28;45297;-76
2022/04/09 07:53:44;;;;;;;;;12.50;11.00;;;;;;;;5071229;28;45383;-76
2022/04/09 07:56:09;;;;;;;;;12.50;12.00;;;;;;;;5076226;27;45449;-77
2022/04/09 07:58:34;;;;;;;;;8.50;8.50;;;;;;;;5075422;28;45473;-77
2022/04/09 08:00:59;;;;;;;;;14.25;13.00;;;;;;;;5077492;28;45524;-77
2022/04/09 08:03:25;;;;;;;;;13.00;12.00;;;;;;;;5077046;28;45368;-78
2022/04/09 08:05:50;;;;;;;;;9.75;7.25;;;;;;;;5078125;28;45397;-78
2022/04/09 08:08:16;;;;;;;;;18.50;12.50;;;;;;;;5076140;28;45362;-78
2022/04/09 08:10:41;;;;;;;;;11.75;11.00;;;;;;;;5062219;28;46588;-76
2022/04/09 08:13:06;;;;;;;;;12.25;11.50;;;;;;;;5071828;28;46728;-76
2022/04/09 08:15:31;;;;;;;;;15.25;13.50;;;;;;;;5068493;28;45446;-75
2022/04/09 08:17:57;;;;;;;;;10.50;10.50;;;;;;;;5066502;28;45516;-76
2022/04/09 08:20:23;;;;;;;;;11.00;9.50;;;;;;;;5075188;27;45712;-76
2022/04/09 08:22:48;;;;;;;;;11.25;11.25;;;;;;;;5066996;27;46096;-77
2022/04/09 08:25:14;;;;;;;;;14.00;13.00;;;;;;;;5075886;28;45533;-75
2022/04/09 08:27:39;;;;;;;;;14.50;12.50;;;;;;;;5064196;27;45529;-82
2022/04/09 08:30:06;;;;;;;;;12.00;12.00;;;;;;;;5072024;28;45428;-78
2022/04/09 08:32:31;;;;;;;;;10.50;10.25;;;;;;;;5069982;27;45532;-80
2022/04/09 08:34:57;;;;;;;;;11.50;10.50;;;;;;;;5063453;28;45845;-82
2022/04/09 08:37:23;;;;;;;;;12.00;12.00;;;;;;;;5065761;28;45222;-80
2022/04/09 08:39:49;;;;;;;;;14.25;14.25;;;;;;;;5073906;27;45393;-82
2022/04/09 08:42:15;;;;;;;;;13.75;10.50;;;;;;;;5072569;28;46524;-77
2022/04/09 08:44:40;;;;;;;;;12.25;12.25;;;;;;;;5077352;27;45464;-78
2022/04/09 08:47:06;;;;;;;;;13.00;10.25;;;;;;;;5080610;27;45356;-78
2022/04/09 08:49:34;;;;;;;;;7.25;7.25;;;;;;;;5059463;28;45505;-78
2022/04/09 08:51:59;;;;;;;;;10.75;8.75;;;;;;;;5070653;27;46408;-77
2022/04/09 08:54:24;;;;;;;;;10.50;8.75;;;;;;;;5074761;27;45319;-79
2022/04/09 08:56:50;;;;;;;;;8.75;8.75;;;;;;;;5074549;28;45490;-74
2022/04/09 08:59:16;;;;;;;;;8.75;8.75;;;;;;;;5072155;28;45452;-78
2022/04/09 09:01:41;;;;;;;;;8.00;7.00;;;;;;;;5059114;28;46212;-77
2022/04/09 09:04:06;;;;;;;;;6.00;6.00;;;;;;;;5072163;27;45331;-76
2022/04/09 09:06:35;;;;;;;;;8.50;8.50;;;;;;;;5074851;28;45285;-78
2022/04/09 09:09:03;;;;;;;;;10.50;9.00;;;;;;;;5074437;28;45359;-79
2022/04/09 09:11:29;;;;;;;;;11.25;9.50;;;;;;;;5072173;28;46582;-81
2022/04/09 09:13:55;;;;;;;;;8.00;8.00;;;;;;;;5070507;28;45560;-81
2022/04/09 09:16:31;;;;;;;;;7.75;6.00;;;;;;;;5075239;27;45579;-81
2022/04/09 09:19:02;;;;;;;;;8.00;8.00;;;;;;;;5069772;28;45680;-78
2022/04/09 09:21:28;;;;;;;;;5.75;5.75;;;;;;;;5066723;27;45436;-77
2022/04/09 09:24:13;;;;;;;;;7.00;7.00;;;;;;;;5062845;28;45321;-78
2022/04/09 09:26:38;;;;;;;;;8.00;7.00;;;;;;;;5067593;28;45405;-77
2022/04/09 09:29:04;;;;;;;;;11.75;11.50;;;;;;;;5062294;28;45648;-77
2022/04/09 09:31:42;;;;;;;;;6.00;6.00;;;;;;;;5075407;28;46081;-79
2022/04/09 09:34:11;;;;;;;;;6.50;6.25;;;;;;;;5073058;28;45320;-77
2022/04/09 09:36:40;;;;;;;;;9.50;6.50;;;;;;;;5075074;27;45379;-78
2022/04/09 09:39:07;;;;;;;;;7.25;7.25;;;;;;;;5065352;28;45491;-78
2022/04/09 09:41:32;;;;;;;;;8.75;7.75;;;;;;;;5060395;28;47237;-79
2022/04/09 09:44:04;;;;;;;;;5.00;5.00;;;;;;;;5062221;28;45337;-79
2022/04/09 09:46:30;;;;;;;;;9.75;9.75;;;;;;;;5058828;28;45252;-77
2022/04/09 09:48:55;;;;;;;;;11.50;7.75;;;;;;;;5072202;28;45438;-79
2022/04/09 09:51:22;;;;;;;;;10.00;8.00;;;;;;;;5074696;27;46908;-78
2022/04/09 09:53:47;;;;;;;;;7.00;6.00;;;;;;;;5082699;27;45428;-78
2022/04/09 09:56:13;;;;;;;;;7.25;7.00;;;;;;;;5085893;28;45533;-78
2022/04/09 09:58:38;;;;;;;;;7.50;6.00;;;;;;;;5072706;28;45411;-77
2022/04/09 10:01:04;;;;;;;;;6.25;6.25;;;;;;;;5087764;28;47326;-78
2022/04/09 10:03:29;;;;;;;;;6.50;5.50;;;;;;;;5084859;27;45392;-78
2022/04/09 10:05:54;;;;;;;;;9.25;9.25;;;;;;;;5070346;28;45272;-77
2022/04/09 10:08:20;;;;;;;;;8.75;8.75;;;;;;;;5067876;28;45279;-76
2022/04/09 10:10:50;;;;;;;;;4.50;4.25;;;;;;;;5072637;27;46910;-78
2022/04/09 10:13:19;;;;;;;;;6.25;6.00;;;;;;;;5074816;28;45464;-76
2022/04/09 10:15:46;;;;;;;;;6.25;5.75;;;;;;;;5075529;27;45415;-78
2022/04/09 10:18:12;;;;;;;;;9.75;7.25;;;;;;;;5065910;27;45452;-78
2022/04/09 10:20:37;;;;;;;;;8.50;7.25;;;;;;;;5064220;28;46097;-82
2022/04/09 10:23:05;;;;;;;;;8.00;8.00;;;;;;;;5072988;28;45355;-78
2022/04/09 10:25:32;;;;;;;;;9.75;7.25;;;;;;;;5073228;27;45477;-78
2022/04/09 10:28:01;;;;;;;;;7.25;6.00;;;;;;;;5074198;27;45545;-77
2022/04/09 10:30:28;;;;;;;;;6.50;5.00;;;;;;;;5061386;28;46141;-76
2022/04/09 10:32:54;;;;;;;;;7.25;6.50;;;;;;;;5067762;28;45516;-77
2022/04/09 10:35:22;;;;;;;;;7.25;7.25;;;;;;;;5073323;27;45467;-78
2022/04/09 10:38:14;;;;;;;;;10.25;8.75;;;;;;;;5072734;28;45513;-77
2022/04/09 10:40:42;;;;;;;;;9.00;8.50;;;;;;;;5058815;27;46428;-78
2022/04/09 10:43:07;;;;;;;;;7.50;6.25;;;;;;;;5058833;27;45452;-78
2022/04/09 10:45:53;;;;;;;;;5.50;5.00;;;;;;;;5075296;28;45269;-78
2022/04/09 10:48:27;;;;;;;;;8.50;8.00;;;;;;;;5076345;28;45441;-78
2022/04/09 10:50:55;;;;;;;;;9.00;8.00;;;;;;;;5077120;27;46492;-78
2022/04/09 10:53:22;;;;;;;;;11.50;11.50;;;;;;;;5073381;28;45777;-79
2022/04/09 10:56:06;;;;;;;;;11.75;10.25;;;;;;;;5063722;28;45393;-78
2022/04/09 10:58:31;;;;;;;;;8.25;8.00;;;;;;;;5061392;28;45514;-77
2022/04/09 11:00:56;;;;;;;;;10.00;8.50;;;;;;;;5077445;27;46326;-78
2022/04/09 11:03:28;;;;;;;;;6.50;6.50;;;;;;;;5074844;28;45398;-78
2022/04/09 11:06:13;;;;;;;;;14.75;11.50;;;;;;;;5077090;28;45528;-79
2022/04/09 11:08:39;;;;;;;;;10.75;9.00;;;;;;;;5079268;28;45482;-86
2022/04/09 11:11:05;;;;;;;;;8.50;8.00;;;;;;;;5077042;27;46187;-83
2022/04/09 11:13:30;;;;;;;;;12.50;12.00;;;;;;;;5078742;28;45321;-82
2022/04/09 11:15:56;;;;;;;;;13.00;12.00;;;;;;;;5075133;28;45340;-84
2022/04/09 11:18:21;;;;;;;;;13.75;11.75;;;;;;;;5077843;27;45366;-85
2022/04/09 11:20:46;;;;;;;;;10.00;9.00;;;;;;;;5070326;28;46077;-84
2022/04/09 11:23:12;;;;;;;;;9.50;9.50;;;;;;;;5066468;28;45483;-84
2022/04/09 11:25:42;;;;;;;;;8.50;8.50;;;;;;;;5063315;28;45447;-83
2022/04/09 11:28:13;;;;;;;;;7.25;7.25;;;;;;;;5077739;27;45506;-84
2022/04/09 11:30:50;;;;;;;;;7.50;7.00;;;;;;;;5062958;27;46058;-84
2022/04/09 11:33:16;;;;;;;;;6.50;6.50;;;;;;;;5075691;28;45300;-83
2022/04/09 11:35:41;;;;;;;;;6.00;6.00;;;;;;;;5072415;28;45356;-84
2022/04/09 11:38:10;;;;;;;;;10.75;8.75;;;;;;;;5066906;28;47126;-83
2022/04/09 11:40:35;;;;;;;;;4.25;4.25;;;;;;;;5078646;27;46027;-84
2022/04/09 11:43:00;;;;;;;;;5.00;5.00;;;;;;;;5077591;28;45382;-82
2022/04/09 11:45:27;;;;;;;;;11.75;11.25;;;;;;;;5082825;28;45705;-83
2022/04/09 11:47:59;;;;;;;;;5.25;5.25;;;;;;;;5084041;27;45405;-84
2022/04/09 11:50:31;;;;;;;;;7.00;7.00;;;;;;;;5077631;27;47400;-85
2022/04/09 11:52:57;;;;;;;;;5.75;5.75;;;;;;;;5076859;27;45506;-85
2022/04/09 11:55:22;;;;;;;;;9.00;6.00;;;;;;;;5076713;27;45672;-84
2022/04/09 11:57:49;;;;;;;;;7.00;6.00;;;;;;;;5078162;28;45341;-84
2022/04/09 12:00:14;;;;;;;;;6.75;6.75;;;;;;;;5067022;27;45472;-84
2022/04/09 12:02:39;;;;;;;;;7.00;6.33;;;;;;;;5065607;28;45413;-83
2022/04/09 12:05:08;;;;;;;;;11.00;10.00;;;;;;;;5065520;28;45640;-87
2022/04/09 12:07:39;;;;;;;;;7.75;7.00;;;;;;;;5078382;27;45408;-82
2022/04/09 12:10:04;;;;;;;;;6.50;6.50;;;;;;;;5075501;28;46656;-84
2022/04/09 12:12:29;;;;;;;;;8.00;8.00;;;;;;;;5077212;27;45317;-84
2022/04/09 12:14:58;;;;;;;;;6.00;6.00;;;;;;;;5069506;27;45437;-88
2022/04/09 12:17:33;;;;;;;;;4.00;4.00;;;;;;;;5067043;28;45423;-85
2022/04/09 12:19:59;;;;;;;;;5.00;5.00;;;;;;;;5069744;28;46207;-82
2022/04/09 12:22:24;;;;;;;;;5.00;5.00;;;;;;;;5066970;28;45354;-85
2022/04/09 12:24:53;;;;;;;;;5.00;5.00;;;;;;;;5063714;27;45453;-85
2022/04/09 12:27:18;;;;;;;;;6.00;6.00;;;;;;;;5064604;28;45525;-85
2022/04/09 12:29:51;;;;;;;;;5.00;5.00;;;;;;;;5077911;28;46127;-84
2022/04/09 12:32:19;;;;;;;;;6.33;5.33;;;;;;;;5077954;28;45296;-84
2022/04/09 12:35:04;;;;;;;;;4.67;4.67;;;;;;;;5073981;27;45497;-84
2022/04/09 12:37:29;;;;;;;;;5.00;5.00;;;;;;;;5071467;28;45453;-84
2022/04/09 12:40:14;;;;;;;;;7.00;6.00;;;;;;;;5075756;28;46214;-84
2022/04/09 12:42:39;;;;;;;;;9.33;8.00;;;;;;;;5072935;28;45554;-85
2022/04/09 12:45:12;;;;;;;;;5.33;5.33;;;;;;;;5068383;27;45847;-85
2022/04/09 12:47:37;;;;;;;;;7.00;6.00;;;;;;;;5065503;28;45473;-85
2022/04/09 12:50:04;;;;;;;;;9.00;6.33;;;;;;;;5074695;28;46073;-85
2022/04/09 12:52:30;;;;;;;;;6.00;6.00;;;;;;;;5076823;27;45394;-83
2022/04/09 12:54:55;;;;;;;;;6.00;6.00;;;;;;;;5076267;27;45396;-85
2022/04/09 12:57:21;;;;;;;;;7.00;6.00;;;;;;;;5075148;27;45690;-84
2022/04/09 12:59:46;;;;;;;;;7.00;5.75;;;;;;;;5075334;28;45559;-84
2022/04/09 13:02:11;;;;;;;;;5.00;5.00;;;;;;;;5072055;28;45346;-84
2022/04/09 13:04:36;;;;;;;;;4.00;4.00;;;;;;;;5059493;28;45409;-83
2022/04/09 13:07:02;;;;;;;;;6.00;5.67;;;;;;;;5059210;28;45362;-83
2022/04/09 13:09:27;;;;;;;;;5.00;5.00;;;;;;;;5074922;28;46504;-83
2022/04/09 13:11:52;;;;;;;;;6.00;6.00;;;;;;;;5075071;28;45350;-83
2022/04/09 13:14:18;;;;;;;;;3.00;2.00;;;;;;;;5077195;27;45337;-84
2022/04/09 13:16:43;;;;;;;;;5.00;4.00;;;;;;;;5077103;28;45478;-84
2022/04/09 13:19:08;;;;;;;;;4.00;4.00;;;;;;;;5072076;28;45559;-85
2022/04/09 13:21:34;;;;;;;;;4.33;4.33;;;;;;;;5075650;28;45421;-85
2022/04/09 13:23:59;;;;;;;;;5.33;5.33;;;;;;;;5076950;28;45555;-86
2022/04/09 13:26:24;;;;;;;;;4.67;4.67;;;;;;;;5077056;28;45285;-85
2022/04/09 13:28:49;;;;;;;;;5.67;4.67;;;;;;;;5074889;28;47200;-85
2022/04/09 13:31:15;;;;;;;;;4.67;4.00;;;;;;;;5073657;28;45324;-84
2022/04/09 13:33:40;;;;;;;;;4.67;3.67;;;;;;;;5072736;28;45330;-84
2022/04/09 13:36:05;;;;;;;;;5.00;5.00;;;;;;;;5075320;27;45368;-83
2022/04/09 13:38:30;;;;;;;;;5.33;5.33;;;;;;;;5068031;28;46237;-84
2022/04/09 13:40:56;;;;;;;;;5.00;4.67;;;;;;;;5062086;28;45299;-85
2022/04/09 13:43:21;;;;;;;;;4.67;3.67;;;;;;;;5070064;28;45461;-84
2022/04/09 13:45:46;;;;;;;;;4.33;4.33;;;;;;;;5074637;27;45568;-84
2022/04/09 13:48:11;;;;;;;;;3.33;3.33;;;;;;;;5065703;28;47858;-84
2022/04/09 13:50:37;;;;;;;;;7.25;6.25;;;;;;;;5069146;28;45489;-87
2022/04/09 13:53:02;;;;;;;;;2.00;2.00;;;;;;;;5067561;28;45501;-86
2022/04/09 13:55:27;;;;;;;;;3.00;3.00;;;;;;;;5078240;27;45567;-86
2022/04/09 13:57:53;;;;;;;;;3.33;3.33;;;;;;;;5079171;27;45417;-80
2022/04/09 14:00:19;;;;;;;;;4.67;3.33;;;;;;;;5073317;27;45297;-81
2022/04/09 14:02:44;;;;;;;;;4.67;3.67;;;;;;;;5068924;27;45444;-84
2022/04/09 14:05:09;;;;;;;;;4.33;3.00;;;;;;;;5074159;28;45433;-84
2022/04/09 14:07:35;;;;;;;;;4.00;4.00;;;;;;;;5072744;28;46874;-84
2022/04/09 14:10:01;;;;;;;;;3.67;3.67;;;;;;;;5069597;28;45381;-84
2022/04/09 14:12:26;;;;;;;;;1.33;1.33;;;;;;;;5062507;28;45452;-84
2022/04/09 14:14:52;;;;;;;;;3.33;3.33;;;;;;;;5062525;28;45553;-78
2022/04/09 14:17:17;;;;;;;;;5.00;4.00;;;;;;;;5069767;28;46491;-79
2022/04/09 14:19:43;;;;;;;;;3.67;3.67;;;;;;;;5068755;28;45431;-81
2022/04/09 14:22:19;;;;;;;;;3.00;3.00;;;;;;;;5076731;28;45398;-79
2022/04/09 14:24:47;;;;;;;;;4.00;4.00;;;;;;;;5067996;28;45473;-79
2022/04/09 14:27:14;;;;;;;;;3.00;3.00;;;;;;;;5073953;28;47748;-85
2022/04/09 14:29:39;;;;;;;;;4.00;4.00;;;;;;;;5075418;28;45683;-86
2022/04/09 14:32:05;;;;;;;;;3.67;3.67;;;;;;;;5073945;28;45345;-87
2022/04/09 14:34:30;;;;;;;;;3.00;3.00;;;;;;;;5072648;28;45514;-86